createdAt,value
2022-12-16T00:02:08.343Z,50.20
2022-12-16T00:04:35.408Z,50.50
2022-12-16T00:07:02.312Z,50.50
2022-12-16T00:09:29.239Z,50.20
2022-12-16T00:11:56.299Z,50.30
2022-12-16T00:14:23.227Z,50.60
2022-12-16T00:16:50.248Z,50.40
2022-12-16T00:19:17.466Z,50.60
2022-12-16T00:21:44.424Z,50.80
2022-12-16T00:24:11.278Z,50.20
2022-12-16T00:26:38.213Z,50.70
2022-12-16T00:29:06.280Z,50.80
2022-12-16T00:31:33.294Z,50.70
2022-12-16T00:34:00.381Z,50.70
2022-12-16T00:36:27.412Z,50.60
2022-12-16T00:38:54.321Z,50.70
2022-12-16T00:41:22.271Z,51.00
2022-12-16T00:43:49.181Z,51.00
2022-12-16T00:46:16.195Z,51.40
2022-12-16T00:48:43.131Z,51.50
2022-12-16T00:51:10.078Z,51.70
2022-12-16T00:53:38.220Z,51.20
2022-12-16T00:56:08.214Z,51.30
2022-12-16T00:58:35.829Z,50.90
2022-12-16T01:01:03.857Z,51.00
2022-12-16T01:03:31.092Z,51.00
2022-12-16T01:05:58.101Z,51.00
2022-12-16T01:08:25.098Z,50.80
2022-12-16T01:10:56.957Z,51.40
2022-12-16T01:13:26.155Z,51.30
2022-12-16T01:15:53.509Z,51.10
2022-12-16T01:18:21.260Z,50.90
2022-12-16T01:20:48.158Z,50.90
2022-12-16T01:23:15.101Z,51.20
2022-12-16T01:25:42.045Z,51.10
2022-12-16T01:28:09.209Z,51.40
2022-12-16T01:30:36.320Z,51.20
2022-12-16T01:33:03.350Z,51.20
2022-12-16T01:35:52.572Z,50.50
2022-12-16T01:38:17.140Z,50.60
2022-12-16T01:40:44.041Z,51.10
2022-12-16T01:43:14.133Z,51.00
2022-12-16T01:45:41.350Z,51.70
2022-12-16T01:48:34.923Z,51.20
2022-12-16T01:51:13.956Z,51.10
2022-12-16T01:53:43.547Z,51.20
2022-12-16T01:56:13.190Z,51.10
2022-12-16T01:58:41.511Z,51.90
2022-12-16T02:01:09.165Z,51.40
2022-12-16T02:03:37.819Z,51.60
2022-12-16T02:06:06.818Z,51.80
2022-12-16T02:08:33.941Z,51.60
2022-12-16T02:11:37.821Z,51.20
2022-12-16T02:14:10.510Z,50.90
2022-12-16T02:17:01.969Z,51.40
2022-12-16T02:19:47.691Z,50.80
2022-12-16T02:22:38.540Z,50.80
2022-12-16T02:25:17.279Z,51.20
2022-12-16T02:27:50.265Z,51.20
2022-12-16T02:30:37.433Z,51.30
2022-12-16T02:33:19.565Z,51.00
2022-12-16T02:36:06.804Z,51.00
2022-12-16T02:39:00.714Z,51.30
2022-12-16T02:41:50.522Z,50.10
2022-12-16T02:44:18.543Z,50.30
2022-12-16T02:46:55.996Z,50.10
2022-12-16T02:49:23.867Z,49.80
2022-12-16T02:51:51.608Z,49.80
2022-12-16T02:54:19.023Z,49.80
2022-12-16T02:56:48.965Z,50.10
2022-12-16T02:59:29.982Z,50.00
2022-12-16T03:02:09.122Z,49.10
2022-12-16T03:04:58.321Z,49.60
2022-12-16T03:07:28.737Z,49.60
2022-12-16T03:09:57.652Z,49.70
2022-12-16T03:12:24.876Z,49.80
2022-12-16T03:14:54.884Z,49.50
2022-12-16T03:17:24.361Z,49.10
2022-12-16T03:20:05.461Z,49.60
2022-12-16T03:22:36.523Z,49.40
2022-12-16T03:25:04.440Z,49.20
2022-12-16T03:27:55.750Z,49.30
2022-12-16T03:30:53.299Z,49.00
2022-12-16T03:33:29.863Z,49.30
2022-12-16T03:36:07.255Z,49.10
2022-12-16T03:38:36.676Z,49.00
2022-12-16T03:41:04.267Z,49.20
2022-12-16T03:43:31.909Z,49.40
2022-12-16T03:46:03.644Z,49.10
2022-12-16T03:48:31.133Z,49.10
2022-12-16T03:50:58.045Z,49.00
2022-12-16T03:53:26.984Z,49.30
2022-12-16T03:55:54.904Z,49.10
2022-12-16T03:58:22.064Z,49.10
2022-12-16T04:00:49.027Z,48.70
2022-12-16T04:03:16.122Z,48.70
2022-12-16T04:05:43.132Z,48.90
2022-12-16T04:08:10.060Z,49.00
2022-12-16T04:10:55.915Z,49.00
2022-12-16T04:13:41.243Z,49.30
2022-12-16T04:16:34.421Z,49.20
2022-12-16T04:19:21.177Z,49.20
2022-12-16T04:22:06.602Z,48.90
2022-12-16T04:24:34.321Z,48.70
2022-12-16T04:27:19.896Z,48.80
2022-12-16T04:30:05.262Z,48.80
2022-12-16T04:32:52.492Z,48.90
2022-12-16T04:35:38.819Z,49.00
2022-12-16T04:38:24.232Z,49.20
2022-12-16T04:41:09.543Z,49.20
2022-12-16T04:43:55.014Z,49.20
2022-12-16T04:46:40.535Z,49.60
2022-12-16T04:49:26.012Z,49.70
2022-12-16T04:52:11.289Z,49.60
2022-12-16T04:54:56.616Z,49.70
2022-12-16T04:57:42.122Z,49.60
2022-12-16T05:00:27.961Z,49.40
2022-12-16T05:03:13.407Z,49.90
2022-12-16T05:05:58.793Z,49.80
2022-12-16T05:08:44.280Z,50.00
2022-12-16T05:11:29.621Z,49.50
2022-12-16T05:14:15.618Z,50.40
2022-12-16T05:17:01.397Z,50.40
2022-12-16T05:19:46.698Z,50.20
2022-12-16T05:22:32.119Z,50.80
2022-12-16T05:25:17.419Z,50.50
2022-12-16T05:28:02.646Z,50.30
2022-12-16T05:30:48.016Z,50.50
2022-12-16T05:33:34.110Z,50.30
2022-12-16T05:36:20.046Z,50.10
2022-12-16T05:39:05.496Z,50.50
2022-12-16T05:41:50.805Z,50.10
2022-12-16T05:44:36.732Z,50.30
2022-12-16T05:47:22.286Z,50.30
2022-12-16T05:50:08.148Z,50.20
2022-12-16T05:52:54.371Z,50.30
2022-12-16T05:55:40.400Z,50.50
2022-12-16T05:58:25.926Z,50.70
2022-12-16T06:01:11.320Z,51.70
2022-12-16T06:03:57.173Z,51.70
2022-12-16T06:06:42.343Z,51.70
2022-12-16T06:09:28.179Z,52.20
2022-12-16T06:12:13.900Z,52.80
2022-12-16T06:14:59.438Z,52.30
2022-12-16T06:17:44.791Z,52.80
2022-12-16T06:20:30.154Z,53.70
2022-12-16T06:23:15.455Z,54.00
2022-12-16T06:26:00.816Z,54.10
2022-12-16T06:28:46.293Z,54.40
2022-12-16T06:31:32.070Z,53.80
2022-12-16T06:34:17.654Z,53.00
2022-12-16T06:37:13.600Z,52.40
2022-12-16T06:40:00.018Z,52.00
2022-12-16T06:42:45.377Z,51.50
2022-12-16T06:45:34.724Z,51.40
2022-12-16T06:48:20.623Z,51.30
2022-12-16T06:51:06.382Z,51.10
2022-12-16T06:53:51.956Z,50.70
2022-12-16T06:56:39.117Z,50.70
2022-12-16T06:59:24.927Z,50.90
2022-12-16T07:02:10.230Z,50.80
2022-12-16T07:04:55.832Z,50.20
2022-12-16T07:07:41.405Z,49.70
2022-12-16T07:10:27.145Z,50.30
2022-12-16T07:13:16.749Z,50.40
2022-12-16T07:16:02.603Z,51.00
2022-12-16T07:18:47.750Z,50.90
2022-12-16T07:21:33.189Z,50.30
2022-12-16T07:24:18.660Z,50.90
2022-12-16T07:27:04.376Z,50.80
2022-12-16T07:29:49.975Z,50.10
2022-12-16T07:32:36.309Z,50.50
2022-12-16T07:35:21.909Z,50.50
2022-12-16T07:38:07.480Z,50.00
2022-12-16T07:40:52.773Z,50.30
2022-12-16T07:43:38.215Z,50.50
2022-12-16T07:46:23.637Z,50.20
2022-12-16T07:49:09.056Z,50.10
2022-12-16T07:51:54.528Z,50.40
2022-12-16T07:54:41.604Z,49.60
2022-12-16T07:57:26.998Z,50.00
2022-12-16T08:00:12.267Z,49.60
2022-12-16T08:02:57.636Z,50.00
2022-12-16T08:05:43.472Z,49.80
2022-12-16T08:08:28.740Z,49.90
2022-12-16T08:11:14.169Z,51.10
2022-12-16T08:13:59.625Z,51.80
2022-12-16T08:16:45.147Z,51.70
2022-12-16T08:19:30.605Z,51.50
2022-12-16T08:22:16.061Z,51.20
2022-12-16T08:25:01.583Z,51.30
2022-12-16T08:27:46.824Z,50.90
2022-12-16T08:30:32.298Z,50.60
2022-12-16T08:33:19.663Z,50.80
2022-12-16T08:36:06.542Z,51.10
2022-12-16T08:38:51.988Z,51.20
2022-12-16T08:41:38.571Z,51.80
2022-12-16T08:44:24.179Z,51.00
2022-12-16T08:47:10.264Z,50.90
2022-12-16T08:49:57.890Z,50.60
2022-12-16T08:52:47.299Z,50.70
2022-12-16T08:55:32.783Z,50.60
2022-12-16T08:58:18.109Z,50.30
2022-12-16T09:01:07.786Z,50.40
2022-12-16T09:03:55.063Z,50.00
2022-12-16T09:06:41.210Z,50.50
2022-12-16T09:09:28.505Z,50.70
2022-12-16T09:12:14.066Z,50.50
2022-12-16T09:14:59.372Z,51.10
2022-12-16T09:17:45.020Z,51.10
2022-12-16T09:20:30.524Z,50.80
2022-12-16T09:23:19.883Z,51.10
2022-12-16T09:26:05.619Z,50.80
2022-12-16T09:28:51.126Z,51.10
2022-12-16T09:31:36.603Z,50.90
2022-12-16T09:34:22.043Z,50.80
2022-12-16T09:37:11.896Z,50.50
2022-12-16T09:39:57.413Z,50.80
2022-12-16T09:42:47.973Z,50.70
2022-12-16T09:45:38.514Z,50.70
2022-12-16T09:48:49.338Z,51.20
2022-12-16T09:51:35.655Z,51.00
2022-12-16T09:54:22.930Z,51.10
2022-12-16T09:57:08.609Z,51.00
2022-12-16T09:59:59.588Z,51.10
2022-12-16T10:02:45.501Z,50.90
2022-12-16T10:05:34.148Z,50.70
2022-12-16T10:08:44.467Z,50.20
2022-12-16T10:11:45.791Z,50.30
2022-12-16T10:14:34.059Z,50.30
2022-12-16T10:17:27.428Z,50.70
2022-12-16T10:20:15.930Z,50.60
2022-12-16T10:23:27.650Z,50.80
2022-12-16T10:26:23.725Z,50.60
2022-12-16T10:29:20.795Z,50.90
2022-12-16T10:32:06.260Z,50.60
2022-12-16T10:34:55.641Z,51.30
2022-12-16T10:37:56.945Z,51.20
2022-12-16T10:40:46.693Z,51.20
2022-12-16T10:43:54.128Z,51.40
2022-12-16T10:46:45.428Z,51.60
2022-12-16T10:49:34.493Z,51.40
2022-12-16T10:52:20.415Z,50.90
2022-12-16T10:55:26.964Z,51.00
2022-12-16T10:58:33.975Z,50.70
2022-12-16T11:01:38.784Z,50.50
2022-12-16T11:04:48.119Z,50.50
2022-12-16T11:07:48.843Z,50.30
2022-12-16T11:11:03.248Z,50.00
2022-12-16T11:13:53.979Z,49.80
2022-12-16T11:16:45.646Z,49.40
2022-12-16T11:19:46.526Z,49.80
2022-12-16T11:22:42.683Z,50.00
2022-12-16T11:25:37.152Z,49.70
2022-12-16T11:28:22.478Z,49.80
2022-12-16T11:31:14.832Z,49.50
2022-12-16T11:34:02.339Z,49.30
2022-12-16T11:36:51.475Z,49.60
2022-12-16T11:39:42.279Z,50.50
2022-12-16T11:42:37.370Z,50.00
2022-12-16T11:45:25.089Z,49.50
2022-12-16T11:48:35.235Z,49.40
2022-12-16T11:51:22.718Z,49.20
2022-12-16T11:54:26.019Z,49.60
2022-12-16T11:57:12.440Z,49.10
2022-12-16T12:00:09.675Z,49.10
2022-12-16T12:03:01.182Z,49.50
2022-12-16T12:05:55.281Z,48.40
2022-12-16T12:08:57.178Z,49.00
2022-12-16T12:11:56.807Z,48.80
2022-12-16T12:14:54.745Z,48.70
2022-12-16T12:17:50.490Z,48.50
2022-12-16T12:21:11.102Z,48.50
2022-12-16T12:24:07.143Z,48.20
2022-12-16T12:26:56.489Z,48.40
2022-12-16T12:30:29.612Z,48.10
2022-12-16T12:33:32.222Z,48.00
2022-12-16T12:36:40.886Z,48.10
2022-12-16T12:39:41.976Z,47.90
2022-12-16T12:42:56.183Z,47.70
2022-12-16T12:46:00.513Z,47.50
2022-12-16T12:48:51.847Z,47.50
2022-12-16T12:51:48.448Z,47.50
2022-12-16T12:54:55.067Z,47.30
2022-12-16T12:57:44.808Z,46.90
2022-12-16T13:00:41.032Z,46.40
2022-12-16T13:03:41.665Z,46.90
2022-12-16T13:06:28.134Z,47.20
2022-12-16T13:09:16.413Z,47.40
2022-12-16T13:12:34.235Z,47.30
2022-12-16T13:15:38.606Z,46.80
2022-12-16T13:18:23.954Z,46.70
2022-12-16T13:21:16.633Z,46.70
2022-12-16T13:24:05.709Z,46.50
2022-12-16T13:26:53.796Z,46.00
2022-12-16T13:29:50.952Z,45.80
2022-12-16T13:32:38.309Z,45.80
2022-12-16T13:35:33.450Z,46.60
2022-12-16T13:38:36.778Z,46.40
2022-12-16T13:41:49.913Z,46.50
2022-12-16T13:45:03.173Z,46.10
2022-12-16T13:48:00.706Z,45.60
2022-12-16T13:50:59.806Z,45.70
2022-12-16T13:53:51.469Z,46.10
2022-12-16T13:56:55.130Z,45.80
2022-12-16T13:59:45.134Z,45.70
2022-12-16T14:02:46.165Z,45.90
2022-12-16T14:05:43.146Z,45.70
2022-12-16T14:08:36.545Z,45.70
2022-12-16T14:11:25.099Z,46.10
2022-12-16T14:14:21.605Z,46.20
2022-12-16T14:17:13.110Z,45.60
2022-12-16T14:20:04.829Z,45.70
2022-12-16T14:23:56.002Z,45.80
2022-12-16T14:26:38.512Z,45.60
2022-12-16T14:29:43.358Z,45.80
2022-12-16T14:32:50.234Z,46.00
2022-12-16T14:35:39.266Z,46.40
2022-12-16T14:38:42.080Z,46.20
2022-12-16T14:41:42.060Z,46.00
2022-12-16T14:44:42.298Z,46.00
2022-12-16T14:47:39.138Z,46.10
2022-12-16T14:50:44.587Z,45.80
2022-12-16T14:53:33.048Z,45.90
2022-12-16T14:56:34.466Z,45.90
2022-12-16T14:59:33.610Z,46.30
2022-12-16T15:02:39.297Z,46.40
2022-12-16T15:05:25.691Z,46.30
2022-12-16T15:08:11.132Z,46.00
2022-12-16T15:10:56.935Z,46.10
2022-12-16T15:13:43.230Z,46.30
2022-12-16T15:16:35.754Z,46.70
2022-12-16T15:19:22.274Z,46.30
2022-12-16T15:22:09.834Z,46.30
2022-12-16T15:24:57.811Z,47.10
2022-12-16T15:27:45.590Z,47.10
2022-12-16T15:30:50.721Z,46.50
2022-12-16T15:33:42.923Z,46.70
2022-12-16T15:36:47.769Z,46.90
2022-12-16T15:39:48.205Z,47.30
2022-12-16T15:42:47.911Z,47.20
2022-12-16T15:45:42.527Z,47.60
2022-12-16T15:48:37.847Z,46.60
2022-12-16T15:51:36.940Z,46.80
2022-12-16T15:54:22.669Z,47.10
2022-12-16T15:57:08.094Z,46.70
2022-12-16T15:59:55.159Z,47.00
2022-12-16T16:02:49.200Z,47.20
2022-12-16T16:05:39.427Z,47.30
2022-12-16T16:08:25.471Z,48.30
2022-12-16T16:11:15.057Z,48.00
2022-12-16T16:14:07.172Z,48.50
2022-12-16T16:16:56.458Z,48.20
2022-12-16T16:19:44.878Z,48.50
2022-12-16T16:22:35.952Z,48.70
2022-12-16T16:25:21.344Z,48.50
2022-12-16T16:28:06.546Z,48.80
2022-12-16T16:30:51.935Z,48.80
2022-12-16T16:33:37.949Z,48.90
2022-12-16T16:36:34.836Z,48.90
2022-12-16T16:39:20.124Z,48.40
2022-12-16T16:42:05.495Z,49.00
2022-12-16T16:44:50.896Z,48.80
2022-12-16T16:47:36.814Z,49.40
2022-12-16T16:50:22.469Z,49.10
2022-12-16T16:53:07.870Z,49.30
2022-12-16T16:55:53.256Z,49.40
2022-12-16T16:58:48.391Z,49.60
2022-12-16T17:01:35.926Z,49.90
2022-12-16T17:04:22.290Z,49.80
2022-12-16T17:07:07.913Z,49.80
2022-12-16T17:09:53.434Z,49.30
2022-12-16T17:12:41.430Z,49.80
2022-12-16T17:15:47.868Z,49.70
2022-12-16T17:18:33.735Z,50.60
2022-12-16T17:21:20.891Z,50.90
2022-12-16T17:24:06.269Z,51.40
2022-12-16T17:26:51.571Z,51.20
2022-12-16T17:29:46.633Z,51.30
2022-12-16T17:32:32.565Z,51.00
2022-12-16T17:35:18.436Z,51.90
2022-12-16T17:38:03.854Z,51.00
2022-12-16T17:40:49.461Z,51.60
2022-12-16T17:43:35.032Z,51.40
2022-12-16T17:46:23.852Z,51.30
2022-12-16T17:49:10.897Z,50.90
2022-12-16T17:51:56.750Z,51.20
2022-12-16T17:54:42.241Z,51.50
2022-12-16T17:57:28.192Z,51.20
2022-12-16T18:00:13.601Z,51.10
2022-12-16T18:02:59.581Z,51.20
2022-12-16T18:05:45.864Z,51.50
2022-12-16T18:08:31.675Z,51.10
2022-12-16T18:11:18.052Z,50.70
2022-12-16T18:14:03.456Z,50.80
2022-12-16T18:16:49.479Z,50.30
2022-12-16T18:19:35.445Z,49.80
2022-12-16T18:22:21.408Z,49.90
2022-12-16T18:25:07.205Z,50.60
2022-12-16T18:27:54.832Z,50.00
2022-12-16T18:30:40.538Z,50.20
2022-12-16T18:33:26.473Z,50.80
2022-12-16T18:36:11.860Z,51.00
2022-12-16T18:38:57.117Z,50.80
2022-12-16T18:41:42.514Z,50.20
2022-12-16T18:44:30.470Z,50.90
2022-12-16T18:47:15.726Z,50.90
2022-12-16T18:50:01.194Z,50.90
2022-12-16T18:52:47.054Z,50.10
2022-12-16T18:55:32.473Z,50.10
2022-12-16T18:58:42.791Z,50.30
2022-12-16T19:01:27.851Z,50.30
2022-12-16T19:04:14.542Z,49.50
2022-12-16T19:07:00.247Z,49.70
2022-12-16T19:09:46.039Z,49.60
2022-12-16T19:12:31.494Z,49.80
2022-12-16T19:15:17.008Z,50.00
2022-12-16T19:18:02.323Z,50.00
2022-12-16T19:20:47.809Z,49.90
2022-12-16T19:23:33.754Z,50.00
2022-12-16T19:26:20.176Z,50.20
2022-12-16T19:29:05.700Z,50.00
2022-12-16T19:32:01.828Z,50.40
2022-12-16T19:34:47.540Z,50.50
2022-12-16T19:37:33.088Z,50.80
2022-12-16T19:40:18.828Z,50.80
2022-12-16T19:43:04.066Z,50.60
2022-12-16T19:45:49.333Z,50.80
2022-12-16T19:48:34.884Z,50.70
2022-12-16T19:51:21.580Z,50.70
2022-12-16T19:54:07.093Z,50.40
2022-12-16T19:56:52.489Z,50.20
2022-12-16T19:59:40.841Z,50.40
2022-12-16T20:02:29.864Z,50.00
2022-12-16T20:05:16.240Z,50.10
2022-12-16T20:08:01.851Z,50.00
2022-12-16T20:10:47.442Z,50.10
2022-12-16T20:13:32.925Z,51.10
2022-12-16T20:16:23.817Z,50.20
2022-12-16T20:19:09.164Z,49.90
2022-12-16T20:25:00.727Z,49.80
2022-12-16T20:27:46.014Z,50.00
2022-12-16T20:30:31.368Z,49.80
2022-12-16T20:33:20.003Z,50.00
2022-12-16T20:36:19.729Z,49.00
2022-12-16T20:39:05.836Z,49.70
2022-12-16T20:41:56.149Z,48.30
2022-12-16T20:44:42.640Z,49.70
2022-12-16T20:47:28.363Z,50.40
2022-12-16T20:50:13.676Z,50.20
2022-12-16T20:53:02.298Z,50.70
2022-12-16T20:55:51.741Z,50.60
2022-12-16T20:58:38.952Z,50.30
2022-12-16T21:01:25.168Z,51.00
2022-12-16T21:04:14.061Z,50.60
2022-12-16T21:06:59.462Z,51.00
2022-12-16T21:09:44.793Z,50.50
2022-12-16T21:12:30.188Z,50.50
2022-12-16T21:14:42.270Z,49.80
2022-12-16T21:15:15.584Z,50.70
2022-12-16T21:18:00.946Z,51.00
2022-12-16T21:20:46.757Z,51.10
2022-12-16T21:23:32.155Z,50.60
2022-12-16T21:26:18.513Z,50.50
2022-12-16T21:29:04.941Z,50.70
2022-12-16T21:31:50.498Z,50.90
2022-12-16T21:34:40.564Z,50.90
2022-12-16T21:37:26.036Z,50.40
2022-12-16T21:40:11.767Z,50.60
2022-12-16T21:42:57.138Z,50.70
2022-12-16T21:45:42.515Z,50.90
2022-12-16T21:48:29.914Z,50.70
2022-12-16T21:51:15.584Z,50.60
2022-12-16T21:54:04.903Z,50.20
2022-12-16T21:59:59.136Z,50.30
2022-12-16T22:02:44.610Z,50.20
2022-12-16T22:05:30.021Z,50.30
2022-12-16T22:08:15.531Z,50.30
2022-12-16T22:11:00.926Z,50.80
2022-12-16T22:13:49.131Z,50.80
2022-12-16T22:16:34.548Z,50.20
2022-12-16T22:19:19.926Z,50.50
2022-12-16T22:22:06.888Z,50.00
2022-12-16T22:24:52.410Z,50.30
2022-12-16T22:27:39.524Z,49.60
2022-12-16T22:30:25.965Z,50.30
2022-12-16T22:33:11.467Z,49.80
2022-12-16T22:35:56.868Z,49.90
2022-12-16T22:38:42.390Z,50.00
2022-12-16T22:41:27.805Z,50.00
2022-12-16T22:44:13.230Z,49.50
2022-12-16T22:46:58.894Z,49.80
2022-12-16T22:49:44.459Z,49.30
2022-12-16T22:52:29.783Z,49.90
2022-12-16T22:55:15.067Z,49.60
2022-12-16T22:58:00.366Z,49.10
2022-12-16T23:00:46.203Z,48.90
2022-12-16T23:03:36.317Z,48.70
2022-12-16T23:06:21.765Z,49.40
2022-12-16T23:09:07.302Z,49.50
2022-12-16T23:11:56.804Z,49.90
2022-12-16T23:14:43.173Z,50.20
2022-12-16T23:17:30.124Z,49.90
2022-12-16T23:20:15.552Z,50.40
2022-12-16T23:23:01.414Z,50.00
2022-12-16T23:25:47.324Z,51.40
2022-12-16T23:28:32.494Z,51.50
2022-12-16T23:31:19.539Z,50.80
2022-12-16T23:34:06.590Z,50.70
2022-12-16T23:36:51.929Z,50.90
2022-12-16T23:39:38.765Z,51.20
2022-12-16T23:42:24.329Z,50.90
2022-12-16T23:45:09.749Z,50.90
2022-12-16T23:47:55.435Z,50.80
2022-12-16T23:50:49.318Z,51.20
2022-12-16T23:53:35.186Z,51.20
2022-12-16T23:56:20.929Z,50.90
2022-12-16T23:59:06.989Z,50.90
